sensor_id;sensor_type;location;lat;lon;timestamp;temperature;humidity
64961;SHT31;51487;52.266;10.542;2023-06-14T00:01:46;15.74;65.85
64961;SHT31;51487;52.266;10.542;2023-06-14T00:04:13;15.67;66.05
64961;SHT31;51487;52.266;10.542;2023-06-14T00:06:39;15.68;66.14
64961;SHT31;51487;52.266;10.542;2023-06-14T00:09:06;15.63;66.27
64961;SHT31;51487;52.266;10.542;2023-06-14T00:11:33;15.65;66.11
64961;SHT31;51487;52.266;10.542;2023-06-14T00:13:59;15.67;66.14
64961;SHT31;51487;52.266;10.542;2023-06-14T00:16:25;15.64;66.36
64961;SHT31;51487;52.266;10.542;2023-06-14T00:18:50;15.57;66.37
64961;SHT31;51487;52.266;10.542;2023-06-14T00:21:19;15.58;66.29
64961;SHT31;51487;52.266;10.542;2023-06-14T00:23:47;15.51;66.66
64961;SHT31;51487;52.266;10.542;2023-06-14T00:26:13;15.53;66.45
64961;SHT31;51487;52.266;10.542;2023-06-14T00:28:38;15.43;66.79
64961;SHT31;51487;52.266;10.542;2023-06-14T00:31:04;15.43;66.89
64961;SHT31;51487;52.266;10.542;2023-06-14T00:33:29;15.37;66.99
64961;SHT31;51487;52.266;10.542;2023-06-14T00:35:55;15.40;67.05
64961;SHT31;51487;52.266;10.542;2023-06-14T00:38:21;15.42;66.88
64961;SHT31;51487;52.266;10.542;2023-06-14T00:40:47;15.34;67.24
64961;SHT31;51487;52.266;10.542;2023-06-14T00:43:12;15.39;67.12
64961;SHT31;51487;52.266;10.542;2023-06-14T00:45:38;15.36;67.16
64961;SHT31;51487;52.266;10.542;2023-06-14T00:48:06;15.30;67.14
64961;SHT31;51487;52.266;10.542;2023-06-14T00:50:32;15.32;67.10
64961;SHT31;51487;52.266;10.542;2023-06-14T00:53:00;15.22;67.21
64961;SHT31;51487;52.266;10.542;2023-06-14T00:55:27;15.16;67.46
64961;SHT31;51487;52.266;10.542;2023-06-14T00:57:55;15.14;67.44
64961;SHT31;51487;52.266;10.542;2023-06-14T01:00:21;15.19;67.31
64961;SHT31;51487;52.266;10.542;2023-06-14T01:02:47;15.14;67.32
64961;SHT31;51487;52.266;10.542;2023-06-14T01:05:15;15.10;67.45
64961;SHT31;51487;52.266;10.542;2023-06-14T01:10:52;15.05;68.02
64961;SHT31;51487;52.266;10.542;2023-06-14T01:13:29;15.05;67.82
64961;SHT31;51487;52.266;10.542;2023-06-14T01:15:57;15.00;68.01
64961;SHT31;51487;52.266;10.542;2023-06-14T01:18:23;15.02;68.13
64961;SHT31;51487;52.266;10.542;2023-06-14T01:20:50;14.92;68.46
64961;SHT31;51487;52.266;10.542;2023-06-14T01:23:20;14.95;68.61
64961;SHT31;51487;52.266;10.542;2023-06-14T01:25:47;14.91;68.70
64961;SHT31;51487;52.266;10.542;2023-06-14T01:28:15;14.99;68.47
64961;SHT31;51487;52.266;10.542;2023-06-14T01:30:44;14.95;68.86
64961;SHT31;51487;52.266;10.542;2023-06-14T01:33:18;14.92;68.70
64961;SHT31;51487;52.266;10.542;2023-06-14T01:35:46;14.85;69.16
64961;SHT31;51487;52.266;10.542;2023-06-14T01:38:13;14.85;68.91
64961;SHT31;51487;52.266;10.542;2023-06-14T01:40:39;14.78;69.18
64961;SHT31;51487;52.266;10.542;2023-06-14T01:43:07;14.71;69.64
64961;SHT31;51487;52.266;10.542;2023-06-14T01:45:33;14.65;69.88
64961;SHT31;51487;52.266;10.542;2023-06-14T01:48:00;14.71;70.12
64961;SHT31;51487;52.266;10.542;2023-06-14T01:50:30;14.71;69.86
64961;SHT31;51487;52.266;10.542;2023-06-14T01:52:57;14.67;70.08
64961;SHT31;51487;52.266;10.542;2023-06-14T01:55:22;14.54;70.39
64961;SHT31;51487;52.266;10.542;2023-06-14T01:57:50;14.52;70.64
64961;SHT31;51487;52.266;10.542;2023-06-14T02:00:16;14.52;70.83
64961;SHT31;51487;52.266;10.542;2023-06-14T02:02:44;14.48;71.05
64961;SHT31;51487;52.266;10.542;2023-06-14T02:05:10;14.38;71.44
64961;SHT31;51487;52.266;10.542;2023-06-14T02:07:36;14.34;71.61
64961;SHT31;51487;52.266;10.542;2023-06-14T02:10:03;14.18;71.99
64961;SHT31;51487;52.266;10.542;2023-06-14T02:12:29;14.10;72.27
64961;SHT31;51487;52.266;10.542;2023-06-14T02:14:55;14.16;72.02
64961;SHT31;51487;52.266;10.542;2023-06-14T02:17:22;14.07;71.92
64961;SHT31;51487;52.266;10.542;2023-06-14T02:19:48;13.96;72.04
64961;SHT31;51487;52.266;10.542;2023-06-14T02:22:15;13.95;71.99
64961;SHT31;51487;52.266;10.542;2023-06-14T02:24:43;13.82;72.41
64961;SHT31;51487;52.266;10.542;2023-06-14T02:27:11;13.69;72.94
64961;SHT31;51487;52.266;10.542;2023-06-14T02:29:37;13.63;73.12
64961;SHT31;51487;52.266;10.542;2023-06-14T02:32:04;13.55;73.49
64961;SHT31;51487;52.266;10.542;2023-06-14T02:34:30;13.55;73.69
64961;SHT31;51487;52.266;10.542;2023-06-14T02:36:55;13.51;73.77
64961;SHT31;51487;52.266;10.542;2023-06-14T02:39:22;13.52;73.78
64961;SHT31;51487;52.266;10.542;2023-06-14T02:41:49;13.45;74.05
64961;SHT31;51487;52.266;10.542;2023-06-14T02:44:18;13.38;74.20
64961;SHT31;51487;52.266;10.542;2023-06-14T02:46:45;13.41;74.26
64961;SHT31;51487;52.266;10.542;2023-06-14T02:49:11;13.37;74.52
64961;SHT31;51487;52.266;10.542;2023-06-14T02:51:37;13.27;74.92
64961;SHT31;51487;52.266;10.542;2023-06-14T02:54:02;13.29;75.08
64961;SHT31;51487;52.266;10.542;2023-06-14T02:56:29;13.31;75.27
64961;SHT31;51487;52.266;10.542;2023-06-14T02:58:54;13.32;75.46
64961;SHT31;51487;52.266;10.542;2023-06-14T03:01:20;13.34;75.55
64961;SHT31;51487;52.266;10.542;2023-06-14T03:03:47;13.41;75.39
64961;SHT31;51487;52.266;10.542;2023-06-14T03:06:13;13.37;75.58
64961;SHT31;51487;52.266;10.542;2023-06-14T03:08:40;13.31;75.79
64961;SHT31;51487;52.266;10.542;2023-06-14T03:11:07;13.29;75.83
64961;SHT31;51487;52.266;10.542;2023-06-14T03:13:34;13.34;75.77
64961;SHT31;51487;52.266;10.542;2023-06-14T03:16:00;13.25;76.17
64961;SHT31;51487;52.266;10.542;2023-06-14T03:18:31;13.25;76.09
64961;SHT31;51487;52.266;10.542;2023-06-14T03:21:03;13.29;76.12
64961;SHT31;51487;52.266;10.542;2023-06-14T03:23:29;13.27;76.35
64961;SHT31;51487;52.266;10.542;2023-06-14T03:25:55;13.19;76.48
64961;SHT31;51487;52.266;10.542;2023-06-14T03:28:21;13.18;76.73
64961;SHT31;51487;52.266;10.542;2023-06-14T03:30:46;13.17;77.00
64961;SHT31;51487;52.266;10.542;2023-06-14T03:33:12;13.24;76.61
64961;SHT31;51487;52.266;10.542;2023-06-14T03:35:37;13.25;76.53
64961;SHT31;51487;52.266;10.542;2023-06-14T03:38:03;13.27;76.19
64961;SHT31;51487;52.266;10.542;2023-06-14T03:40:29;13.31;76.24
64961;SHT31;51487;52.266;10.542;2023-06-14T03:42:55;13.41;75.59
64961;SHT31;51487;52.266;10.542;2023-06-14T03:45:21;13.46;75.42
64961;SHT31;51487;52.266;10.542;2023-06-14T03:47:47;13.45;75.28
64961;SHT31;51487;52.266;10.542;2023-06-14T03:50:13;13.51;75.16
64961;SHT31;51487;52.266;10.542;2023-06-14T03:52:38;13.51;75.20
64961;SHT31;51487;52.266;10.542;2023-06-14T03:55:05;13.48;75.23
64961;SHT31;51487;52.266;10.542;2023-06-14T03:57:31;13.51;75.18
64961;SHT31;51487;52.266;10.542;2023-06-14T03:59:57;13.49;75.51
64961;SHT31;51487;52.266;10.542;2023-06-14T04:02:22;13.52;75.60
64961;SHT31;51487;52.266;10.542;2023-06-14T04:04:48;13.59;75.57
64961;SHT31;51487;52.266;10.542;2023-06-14T04:07:15;13.58;75.77
64961;SHT31;51487;52.266;10.542;2023-06-14T04:09:45;13.69;75.52
64961;SHT31;51487;52.266;10.542;2023-06-14T04:12:11;13.61;75.85
64961;SHT31;51487;52.266;10.542;2023-06-14T04:14:40;13.73;75.36
64961;SHT31;51487;52.266;10.542;2023-06-14T04:17:06;13.85;75.27
64961;SHT31;51487;52.266;10.542;2023-06-14T04:19:32;13.80;75.10
64961;SHT31;51487;52.266;10.542;2023-06-14T04:21:59;13.82;75.19
64961;SHT31;51487;52.266;10.542;2023-06-14T04:24:26;13.91;74.95
64961;SHT31;51487;52.266;10.542;2023-06-14T04:26:58;13.87;75.17
64961;SHT31;51487;52.266;10.542;2023-06-14T04:29:25;13.89;75.04
64961;SHT31;51487;52.266;10.542;2023-06-14T04:31:54;13.97;75.14
64961;SHT31;51487;52.266;10.542;2023-06-14T04:34:20;13.99;74.86
64961;SHT31;51487;52.266;10.542;2023-06-14T04:36:47;14.02;74.91
64961;SHT31;51487;52.266;10.542;2023-06-14T04:39:22;14.05;74.80
64961;SHT31;51487;52.266;10.542;2023-06-14T04:41:48;14.10;74.92
64961;SHT31;51487;52.266;10.542;2023-06-14T04:44:19;14.10;74.70
64961;SHT31;51487;52.266;10.542;2023-06-14T04:46:46;14.18;75.17
64961;SHT31;51487;52.266;10.542;2023-06-14T04:49:13;14.35;74.68
64961;SHT31;51487;52.266;10.542;2023-06-14T04:51:44;14.35;73.89
64961;SHT31;51487;52.266;10.542;2023-06-14T04:54:10;14.30;74.34
64961;SHT31;51487;52.266;10.542;2023-06-14T04:56:39;14.20;74.44
64961;SHT31;51487;52.266;10.542;2023-06-14T04:59:05;14.30;74.54
64961;SHT31;51487;52.266;10.542;2023-06-14T05:01:31;14.30;74.64
64961;SHT31;51487;52.266;10.542;2023-06-14T05:03:58;14.42;74.45
64961;SHT31;51487;52.266;10.542;2023-06-14T05:06:24;14.47;74.31
64961;SHT31;51487;52.266;10.542;2023-06-14T05:08:49;14.42;74.84
64961;SHT31;51487;52.266;10.542;2023-06-14T05:11:15;14.45;74.49
64961;SHT31;51487;52.266;10.542;2023-06-14T05:13:42;14.48;74.97
64961;SHT31;51487;52.266;10.542;2023-06-14T05:16:09;14.51;74.96
64961;SHT31;51487;52.266;10.542;2023-06-14T05:18:34;14.48;75.25
64961;SHT31;51487;52.266;10.542;2023-06-14T05:21:01;14.57;74.97
64961;SHT31;51487;52.266;10.542;2023-06-14T05:23:27;14.71;75.06
64961;SHT31;51487;52.266;10.542;2023-06-14T05:25:52;14.79;74.72
64961;SHT31;51487;52.266;10.542;2023-06-14T05:28:18;14.91;74.53
64961;SHT31;51487;52.266;10.542;2023-06-14T05:30:44;14.74;74.77
64961;SHT31;51487;52.266;10.542;2023-06-14T05:33:09;14.78;74.89
64961;SHT31;51487;52.266;10.542;2023-06-14T05:35:35;14.76;74.74
64961;SHT31;51487;52.266;10.542;2023-06-14T05:38:00;14.75;75.31
64961;SHT31;51487;52.266;10.542;2023-06-14T05:40:26;14.78;74.98
64961;SHT31;51487;52.266;10.542;2023-06-14T05:42:51;14.82;75.18
64961;SHT31;51487;52.266;10.542;2023-06-14T05:45:17;14.79;75.21
64961;SHT31;51487;52.266;10.542;2023-06-14T05:47:43;14.88;75.28
64961;SHT31;51487;52.266;10.542;2023-06-14T05:50:09;14.91;75.14
64961;SHT31;51487;52.266;10.542;2023-06-14T05:52:35;14.92;75.27
64961;SHT31;51487;52.266;10.542;2023-06-14T05:55:03;14.98;75.10
64961;SHT31;51487;52.266;10.542;2023-06-14T05:57:29;15.00;75.14
64961;SHT31;51487;52.266;10.542;2023-06-14T05:59:54;15.09;74.92
64961;SHT31;51487;52.266;10.542;2023-06-14T06:02:20;15.19;75.01
64961;SHT31;51487;52.266;10.542;2023-06-14T06:04:46;15.22;75.00
64961;SHT31;51487;52.266;10.542;2023-06-14T06:07:11;15.37;74.67
64961;SHT31;51487;52.266;10.542;2023-06-14T06:09:37;15.44;74.72
64961;SHT31;51487;52.266;10.542;2023-06-14T06:12:06;15.55;74.00
64961;SHT31;51487;52.266;10.542;2023-06-14T06:14:32;15.60;74.00
64961;SHT31;51487;52.266;10.542;2023-06-14T06:16:57;15.65;73.95
64961;SHT31;51487;52.266;10.542;2023-06-14T06:19:23;15.65;73.71
64961;SHT31;51487;52.266;10.542;2023-06-14T06:21:48;15.78;73.72
64961;SHT31;51487;52.266;10.542;2023-06-14T06:24:14;15.90;73.77
64961;SHT31;51487;52.266;10.542;2023-06-14T06:26:40;15.98;73.19
64961;SHT31;51487;52.266;10.542;2023-06-14T06:29:06;16.08;72.09
64961;SHT31;51487;52.266;10.542;2023-06-14T06:31:31;16.05;72.66
64961;SHT31;51487;52.266;10.542;2023-06-14T06:33:57;16.11;72.47
64961;SHT31;51487;52.266;10.542;2023-06-14T06:36:22;16.13;72.67
64961;SHT31;51487;52.266;10.542;2023-06-14T06:38:48;16.21;71.93
64961;SHT31;51487;52.266;10.542;2023-06-14T06:41:14;16.19;72.19
64961;SHT31;51487;52.266;10.542;2023-06-14T06:43:39;16.30;71.89
64961;SHT31;51487;52.266;10.542;2023-06-14T06:46:05;16.42;71.05
64961;SHT31;51487;52.266;10.542;2023-06-14T06:48:30;16.52;70.86
64961;SHT31;51487;52.266;10.542;2023-06-14T06:50:56;16.67;70.66
64961;SHT31;51487;52.266;10.542;2023-06-14T06:53:21;16.64;70.69
64961;SHT31;51487;52.266;10.542;2023-06-14T06:55:48;16.66;71.17
64961;SHT31;51487;52.266;10.542;2023-06-14T06:58:13;16.74;70.74
64961;SHT31;51487;52.266;10.542;2023-06-14T07:00:39;16.90;69.94
64961;SHT31;51487;52.266;10.542;2023-06-14T07:03:05;16.81;69.75
64961;SHT31;51487;52.266;10.542;2023-06-14T07:05:30;16.83;69.06
64961;SHT31;51487;52.266;10.542;2023-06-14T07:07:56;16.92;69.10
64961;SHT31;51487;52.266;10.542;2023-06-14T07:10:22;17.03;68.21
64961;SHT31;51487;52.266;10.542;2023-06-14T07:12:50;17.00;68.15
64961;SHT31;51487;52.266;10.542;2023-06-14T07:15:16;17.18;68.69
64961;SHT31;51487;52.266;10.542;2023-06-14T07:17:42;17.31;67.90
64961;SHT31;51487;52.266;10.542;2023-06-14T07:20:09;17.35;67.28
64961;SHT31;51487;52.266;10.542;2023-06-14T07:22:42;17.45;67.28
64961;SHT31;51487;52.266;10.542;2023-06-14T07:25:10;17.56;67.15
64961;SHT31;51487;52.266;10.542;2023-06-14T07:27:40;17.72;66.95
64961;SHT31;51487;52.266;10.542;2023-06-14T07:30:07;17.82;66.58
64961;SHT31;51487;52.266;10.542;2023-06-14T07:32:33;17.86;65.75
64961;SHT31;51487;52.266;10.542;2023-06-14T07:34:58;17.86;65.03
64961;SHT31;51487;52.266;10.542;2023-06-14T07:37:24;17.87;64.69
64961;SHT31;51487;52.266;10.542;2023-06-14T07:39:50;17.79;64.38
64961;SHT31;51487;52.266;10.542;2023-06-14T07:42:15;17.97;64.99
64961;SHT31;51487;52.266;10.542;2023-06-14T07:44:41;18.11;63.78
64961;SHT31;51487;52.266;10.542;2023-06-14T07:47:06;18.03;63.95
64961;SHT31;51487;52.266;10.542;2023-06-14T07:49:32;18.13;64.27
64961;SHT31;51487;52.266;10.542;2023-06-14T07:51:57;18.17;63.30
64961;SHT31;51487;52.266;10.542;2023-06-14T07:54:24;18.27;62.82
64961;SHT31;51487;52.266;10.542;2023-06-14T07:56:52;18.18;62.19
64961;SHT31;51487;52.266;10.542;2023-06-14T07:59:18;18.34;62.62
64961;SHT31;51487;52.266;10.542;2023-06-14T08:01:43;18.38;62.50
64961;SHT31;51487;52.266;10.542;2023-06-14T08:04:16;18.38;62.57
64961;SHT31;51487;52.266;10.542;2023-06-14T08:06:41;18.49;62.24
64961;SHT31;51487;52.266;10.542;2023-06-14T08:09:11;18.55;62.09
64961;SHT31;51487;52.266;10.542;2023-06-14T08:11:37;18.59;62.49
64961;SHT31;51487;52.266;10.542;2023-06-14T08:14:03;18.73;62.40
64961;SHT31;51487;52.266;10.542;2023-06-14T08:16:29;18.69;62.44
64961;SHT31;51487;52.266;10.542;2023-06-14T08:18:56;18.72;61.95
64961;SHT31;51487;52.266;10.542;2023-06-14T08:21:21;18.66;62.19
64961;SHT31;51487;52.266;10.542;2023-06-14T08:23:47;18.61;61.97
64961;SHT31;51487;52.266;10.542;2023-06-14T08:26:13;18.59;62.35
64961;SHT31;51487;52.266;10.542;2023-06-14T08:28:38;18.59;62.55
64961;SHT31;51487;52.266;10.542;2023-06-14T08:31:04;18.75;62.38
64961;SHT31;51487;52.266;10.542;2023-06-14T08:33:30;18.79;62.07
64961;SHT31;51487;52.266;10.542;2023-06-14T08:35:59;18.79;60.97
64961;SHT31;51487;52.266;10.542;2023-06-14T08:38:24;18.84;60.15
64961;SHT31;51487;52.266;10.542;2023-06-14T08:40:51;18.81;60.22
64961;SHT31;51487;52.266;10.542;2023-06-14T08:43:18;18.94;60.57
64961;SHT31;51487;52.266;10.542;2023-06-14T08:45:46;19.05;60.46
64961;SHT31;51487;52.266;10.542;2023-06-14T08:48:13;19.10;60.51
64961;SHT31;51487;52.266;10.542;2023-06-14T08:50:44;19.22;59.29
64961;SHT31;51487;52.266;10.542;2023-06-14T08:53:13;19.24;60.03
64961;SHT31;51487;52.266;10.542;2023-06-14T08:55:45;19.37;59.26
64961;SHT31;51487;52.266;10.542;2023-06-14T08:58:13;19.53;58.56
64961;SHT31;51487;52.266;10.542;2023-06-14T09:00:39;19.63;58.73
64961;SHT31;51487;52.266;10.542;2023-06-14T09:03:07;19.74;57.77
64961;SHT31;51487;52.266;10.542;2023-06-14T09:05:38;19.79;57.65
64961;SHT31;51487;52.266;10.542;2023-06-14T09:08:04;19.84;57.41
64961;SHT31;51487;52.266;10.542;2023-06-14T09:10:31;19.81;57.12
64961;SHT31;51487;52.266;10.542;2023-06-14T09:13:03;19.94;57.31
64961;SHT31;51487;52.266;10.542;2023-06-14T09:15:34;20.08;56.54
64961;SHT31;51487;52.266;10.542;2023-06-14T09:18:03;20.05;56.72
64961;SHT31;51487;52.266;10.542;2023-06-14T09:20:30;20.18;56.62
64961;SHT31;51487;52.266;10.542;2023-06-14T09:22:56;20.02;57.08
64961;SHT31;51487;52.266;10.542;2023-06-14T09:25:22;20.04;57.11
64961;SHT31;51487;52.266;10.542;2023-06-14T09:27:48;20.16;56.88
64961;SHT31;51487;52.266;10.542;2023-06-14T09:30:14;20.32;56.93
64961;SHT31;51487;52.266;10.542;2023-06-14T09:32:40;20.50;56.93
64961;SHT31;51487;52.266;10.542;2023-06-14T09:35:07;20.56;56.67
64961;SHT31;51487;52.266;10.542;2023-06-14T09:37:34;20.37;56.50
64961;SHT31;51487;52.266;10.542;2023-06-14T09:39:59;20.36;56.75
64961;SHT31;51487;52.266;10.542;2023-06-14T09:42:26;20.46;56.32
64961;SHT31;51487;52.266;10.542;2023-06-14T09:44:54;20.56;55.44
64961;SHT31;51487;52.266;10.542;2023-06-14T09:47:21;20.46;55.92
64961;SHT31;51487;52.266;10.542;2023-06-14T09:49:48;20.54;56.73
64961;SHT31;51487;52.266;10.542;2023-06-14T09:52:19;20.79;55.74
64961;SHT31;51487;52.266;10.542;2023-06-14T09:54:47;20.94;54.87
64961;SHT31;51487;52.266;10.542;2023-06-14T09:57:20;21.10;55.14
64961;SHT31;51487;52.266;10.542;2023-06-14T09:59:47;21.15;54.65
64961;SHT31;51487;52.266;10.542;2023-06-14T10:02:29;21.15;54.73
64961;SHT31;51487;52.266;10.542;2023-06-14T10:05:08;21.29;54.83
64961;SHT31;51487;52.266;10.542;2023-06-14T10:07:48;21.55;53.90
64961;SHT31;51487;52.266;10.542;2023-06-14T10:10:15;21.59;52.88
64961;SHT31;51487;52.266;10.542;2023-06-14T10:12:41;21.62;53.51
64961;SHT31;51487;52.266;10.542;2023-06-14T10:15:10;21.66;53.58
64961;SHT31;51487;52.266;10.542;2023-06-14T10:18:01;21.78;54.35
64961;SHT31;51487;52.266;10.542;2023-06-14T10:20:50;21.82;53.52
64961;SHT31;51487;52.266;10.542;2023-06-14T10:23:24;21.87;52.93
64961;SHT31;51487;52.266;10.542;2023-06-14T10:25:56;22.09;52.63
64961;SHT31;51487;52.266;10.542;2023-06-14T10:28:23;22.38;52.20
64961;SHT31;51487;52.266;10.542;2023-06-14T10:31:09;22.34;52.19
64961;SHT31;51487;52.266;10.542;2023-06-14T10:33:56;22.22;52.39
64961;SHT31;51487;52.266;10.542;2023-06-14T10:39:14;22.58;53.01
64961;SHT31;51487;52.266;10.542;2023-06-14T10:41:41;22.73;51.89
64961;SHT31;51487;52.266;10.542;2023-06-14T10:46:46;22.58;51.92
64961;SHT31;51487;52.266;10.542;2023-06-14T10:49:12;22.45;52.38
64961;SHT31;51487;52.266;10.542;2023-06-14T10:51:43;22.34;52.49
64961;SHT31;51487;52.266;10.542;2023-06-14T10:54:17;22.14;52.88
64961;SHT31;51487;52.266;10.542;2023-06-14T10:56:51;22.16;52.76
64961;SHT31;51487;52.266;10.542;2023-06-14T10:59:19;22.07;53.65
64961;SHT31;51487;52.266;10.542;2023-06-14T11:04:51;22.40;53.67
64961;SHT31;51487;52.266;10.542;2023-06-14T11:12:56;22.25;54.12
64961;SHT31;51487;52.266;10.542;2023-06-14T11:15:32;22.27;53.42
64961;SHT31;51487;52.266;10.542;2023-06-14T11:18:07;22.24;53.81
64961;SHT31;51487;52.266;10.542;2023-06-14T11:20:35;22.34;53.70
64961;SHT31;51487;52.266;10.542;2023-06-14T11:23:02;22.45;54.04
64961;SHT31;51487;52.266;10.542;2023-06-14T11:25:28;22.34;53.79
64961;SHT31;51487;52.266;10.542;2023-06-14T11:27:54;22.36;53.76
64961;SHT31;51487;52.266;10.542;2023-06-14T11:30:21;22.59;53.61
64961;SHT31;51487;52.266;10.542;2023-06-14T11:32:48;22.81;52.30
64961;SHT31;51487;52.266;10.542;2023-06-14T11:35:16;22.98;52.41
64961;SHT31;51487;52.266;10.542;2023-06-14T11:37:42;22.86;52.48
64961;SHT31;51487;52.266;10.542;2023-06-14T11:40:11;23.15;53.60
64961;SHT31;51487;52.266;10.542;2023-06-14T11:42:39;23.07;51.31
64961;SHT31;51487;52.266;10.542;2023-06-14T11:45:09;22.92;51.26
64961;SHT31;51487;52.266;10.542;2023-06-14T11:47:37;22.75;52.08
64961;SHT31;51487;52.266;10.542;2023-06-14T11:50:08;22.78;52.53
64961;SHT31;51487;52.266;10.542;2023-06-14T11:52:36;22.61;53.39
64961;SHT31;51487;52.266;10.542;2023-06-14T11:55:03;22.71;52.95
64961;SHT31;51487;52.266;10.542;2023-06-14T11:57:35;22.95;53.30
64961;SHT31;51487;52.266;10.542;2023-06-14T12:00:07;23.07;52.22
64961;SHT31;51487;52.266;10.542;2023-06-14T12:02:37;23.26;51.78
64961;SHT31;51487;52.266;10.542;2023-06-14T12:05:07;23.23;52.65
64961;SHT31;51487;52.266;10.542;2023-06-14T12:07:38;23.15;52.26
64961;SHT31;51487;52.266;10.542;2023-06-14T12:10:08;23.23;52.41
64961;SHT31;51487;52.266;10.542;2023-06-14T12:12:39;23.20;52.57
64961;SHT31;51487;52.266;10.542;2023-06-14T12:15:09;23.36;52.32
64961;SHT31;51487;52.266;10.542;2023-06-14T12:17:39;23.40;52.11
64961;SHT31;51487;52.266;10.542;2023-06-14T12:20:12;23.26;51.38
64961;SHT31;51487;52.266;10.542;2023-06-14T12:22:56;23.60;51.01
64961;SHT31;51487;52.266;10.542;2023-06-14T12:25:27;23.47;50.61
64961;SHT31;51487;52.266;10.542;2023-06-14T12:27:54;23.64;51.55
64961;SHT31;51487;52.266;10.542;2023-06-14T12:30:20;23.67;50.44
64961;SHT31;51487;52.266;10.542;2023-06-14T12:32:46;23.78;49.83
64961;SHT31;51487;52.266;10.542;2023-06-14T12:35:11;23.70;50.12
64961;SHT31;51487;52.266;10.542;2023-06-14T12:37:37;23.84;49.84
64961;SHT31;51487;52.266;10.542;2023-06-14T12:40:04;23.79;49.76
64961;SHT31;51487;52.266;10.542;2023-06-14T12:42:32;23.44;50.62
64961;SHT31;51487;52.266;10.542;2023-06-14T12:44:58;23.79;50.52
64961;SHT31;51487;52.266;10.542;2023-06-14T12:47:24;23.81;50.16
64961;SHT31;51487;52.266;10.542;2023-06-14T12:49:49;23.58;49.71
64961;SHT31;51487;52.266;10.542;2023-06-14T12:52:15;23.37;50.24
64961;SHT31;51487;52.266;10.542;2023-06-14T12:54:41;23.02;50.52
64961;SHT31;51487;52.266;10.542;2023-06-14T12:57:07;22.71;51.58
64961;SHT31;51487;52.266;10.542;2023-06-14T12:59:33;22.67;51.85
64961;SHT31;51487;52.266;10.542;2023-06-14T13:02:11;22.72;52.09
64961;SHT31;51487;52.266;10.542;2023-06-14T13:04:36;22.69;52.05
64961;SHT31;51487;52.266;10.542;2023-06-14T13:07:02;22.89;52.04
64961;SHT31;51487;52.266;10.542;2023-06-14T13:09:28;22.89;52.30
64961;SHT31;51487;52.266;10.542;2023-06-14T13:11:53;22.94;52.20
64961;SHT31;51487;52.266;10.542;2023-06-14T13:14:19;22.75;51.87
64961;SHT31;51487;52.266;10.542;2023-06-14T13:16:44;22.79;51.99
64961;SHT31;51487;52.266;10.542;2023-06-14T13:19:10;22.69;52.09
64961;SHT31;51487;52.266;10.542;2023-06-14T13:21:35;22.62;52.10
64961;SHT31;51487;52.266;10.542;2023-06-14T13:24:01;22.55;53.14
64961;SHT31;51487;52.266;10.542;2023-06-14T13:26:26;22.52;52.82
64961;SHT31;51487;52.266;10.542;2023-06-14T13:28:52;22.64;52.84
64961;SHT31;51487;52.266;10.542;2023-06-14T13:31:17;22.79;52.34
64961;SHT31;51487;52.266;10.542;2023-06-14T13:33:43;22.89;52.03
64961;SHT31;51487;52.266;10.542;2023-06-14T13:36:09;22.94;51.91
64961;SHT31;51487;52.266;10.542;2023-06-14T13:38:35;22.94;52.09
64961;SHT31;51487;52.266;10.542;2023-06-14T13:41:01;23.05;51.46
64961;SHT31;51487;52.266;10.542;2023-06-14T13:43:26;22.92;52.59
64961;SHT31;51487;52.266;10.542;2023-06-14T13:45:52;23.06;51.53
64961;SHT31;51487;52.266;10.542;2023-06-14T13:48:17;23.20;51.52
64961;SHT31;51487;52.266;10.542;2023-06-14T13:50:43;23.36;51.57
64961;SHT31;51487;52.266;10.542;2023-06-14T13:53:09;23.49;50.54
64961;SHT31;51487;52.266;10.542;2023-06-14T13:55:35;23.23;52.07
64961;SHT31;51487;52.266;10.542;2023-06-14T13:58:00;23.28;51.15
64961;SHT31;51487;52.266;10.542;2023-06-14T14:00:26;23.36;51.80
64961;SHT31;51487;52.266;10.542;2023-06-14T14:02:52;23.42;51.95
64961;SHT31;51487;52.266;10.542;2023-06-14T14:05:17;23.74;51.49
64961;SHT31;51487;52.266;10.542;2023-06-14T14:07:43;23.55;51.85
64961;SHT31;51487;52.266;10.542;2023-06-14T14:10:10;23.49;50.94
64961;SHT31;51487;52.266;10.542;2023-06-14T14:12:38;23.34;51.57
64961;SHT31;51487;52.266;10.542;2023-06-14T14:15:05;23.37;49.90
64961;SHT31;51487;52.266;10.542;2023-06-14T14:17:37;23.43;50.71
64961;SHT31;51487;52.266;10.542;2023-06-14T14:20:03;23.42;50.16
64961;SHT31;51487;52.266;10.542;2023-06-14T14:22:29;23.63;50.31
64961;SHT31;51487;52.266;10.542;2023-06-14T14:24:55;23.75;50.42
64961;SHT31;51487;52.266;10.542;2023-06-14T14:27:20;23.77;50.63
64961;SHT31;51487;52.266;10.542;2023-06-14T14:29:46;23.58;50.41
64961;SHT31;51487;52.266;10.542;2023-06-14T14:32:12;23.39;51.70
64961;SHT31;51487;52.266;10.542;2023-06-14T14:34:39;23.42;50.07
64961;SHT31;51487;52.266;10.542;2023-06-14T14:37:05;23.39;49.26
64961;SHT31;51487;52.266;10.542;2023-06-14T14:39:31;23.34;50.02
64961;SHT31;51487;52.266;10.542;2023-06-14T14:41:56;23.30;50.27
64961;SHT31;51487;52.266;10.542;2023-06-14T14:44:22;23.23;50.30
64961;SHT31;51487;52.266;10.542;2023-06-14T14:46:47;22.98;51.22
64961;SHT31;51487;52.266;10.542;2023-06-14T14:49:13;22.75;52.06
64961;SHT31;51487;52.266;10.542;2023-06-14T14:51:38;22.78;51.96
64961;SHT31;51487;52.266;10.542;2023-06-14T14:54:06;22.88;51.98
64961;SHT31;51487;52.266;10.542;2023-06-14T14:56:32;23.49;50.94
64961;SHT31;51487;52.266;10.542;2023-06-14T14:58:57;23.74;50.30
64961;SHT31;51487;52.266;10.542;2023-06-14T15:01:23;24.04;49.76
64961;SHT31;51487;52.266;10.542;2023-06-14T15:03:48;24.22;49.83
64961;SHT31;51487;52.266;10.542;2023-06-14T15:06:14;24.35;48.55
64961;SHT31;51487;52.266;10.542;2023-06-14T15:08:40;24.70;48.67
64961;SHT31;51487;52.266;10.542;2023-06-14T15:11:05;24.95;47.37
64961;SHT31;51487;52.266;10.542;2023-06-14T15:13:32;25.12;45.71
64961;SHT31;51487;52.266;10.542;2023-06-14T15:15:57;25.30;45.49
64961;SHT31;51487;52.266;10.542;2023-06-14T15:18:23;25.63;45.06
64961;SHT31;51487;52.266;10.542;2023-06-14T15:20:49;25.99;44.37
64961;SHT31;51487;52.266;10.542;2023-06-14T15:23:15;26.49;43.87
64961;SHT31;51487;52.266;10.542;2023-06-14T15:25:46;25.99;44.61
64961;SHT31;51487;52.266;10.542;2023-06-14T15:28:14;25.14;44.99
64961;SHT31;51487;52.266;10.542;2023-06-14T15:30:40;24.66;46.53
64961;SHT31;51487;52.266;10.542;2023-06-14T15:33:06;24.62;46.94